sensor_id;sensor_type;location;lat;lon;timestamp;temperature;humidity
65396;HTU21D;52004;45.136;39.010;2023-02-13T00:00:35;0.17;69.93
65396;HTU21D;52004;45.136;39.010;2023-02-13T00:03:02;0.17;69.90
65396;HTU21D;52004;45.136;39.010;2023-02-13T00:05:28;0.19;69.88
65396;HTU21D;52004;45.136;39.010;2023-02-13T00:07:53;0.19;69.85
65396;HTU21D;52004;45.136;39.010;2023-02-13T00:10:19;0.17;69.87
65396;HTU21D;52004;45.136;39.010;2023-02-13T00:12:45;0.17;69.87
65396;HTU21D;52004;45.136;39.010;2023-02-13T00:15:11;0.17;69.84
65396;HTU21D;52004;45.136;39.010;2023-02-13T00:17:37;0.16;69.81
65396;HTU21D;52004;45.136;39.010;2023-02-13T00:20:03;0.15;69.87
65396;HTU21D;52004;45.136;39.010;2023-02-13T00:22:29;0.14;69.87
65396;HTU21D;52004;45.136;39.010;2023-02-13T00:24:55;0.13;69.86
65396;HTU21D;52004;45.136;39.010;2023-02-13T00:27:21;0.13;69.83
65396;HTU21D;52004;45.136;39.010;2023-02-13T00:29:47;0.10;69.83
65396;HTU21D;52004;45.136;39.010;2023-02-13T00:32:13;0.10;69.85
65396;HTU21D;52004;45.136;39.010;2023-02-13T00:34:39;0.09;69.87
65396;HTU21D;52004;45.136;39.010;2023-02-13T00:37:05;0.07;69.87
65396;HTU21D;52004;45.136;39.010;2023-02-13T00:39:31;0.08;69.87
65396;HTU21D;52004;45.136;39.010;2023-02-13T00:41:57;0.08;69.84
65396;HTU21D;52004;45.136;39.010;2023-02-13T00:44:23;0.10;69.84
65396;HTU21D;52004;45.136;39.010;2023-02-13T00:46:49;0.10;69.84
65396;HTU21D;52004;45.136;39.010;2023-02-13T00:49:15;0.08;69.82
65396;HTU21D;52004;45.136;39.010;2023-02-13T00:51:41;0.08;69.85
65396;HTU21D;52004;45.136;39.010;2023-02-13T00:54:07;0.08;69.81
65396;HTU21D;52004;45.136;39.010;2023-02-13T00:56:33;0.09;69.86
65396;HTU21D;52004;45.136;39.010;2023-02-13T00:58:59;0.08;69.83
65396;HTU21D;52004;45.136;39.010;2023-02-13T01:01:25;0.06;69.74
65396;HTU21D;52004;45.136;39.010;2023-02-13T01:03:51;0.06;69.82
65396;HTU21D;52004;45.136;39.010;2023-02-13T01:06:16;0.05;69.81
65396;HTU21D;52004;45.136;39.010;2023-02-13T01:08:42;0.04;69.77
65396;HTU21D;52004;45.136;39.010;2023-02-13T01:11:08;0.04;69.78
65396;HTU21D;52004;45.136;39.010;2023-02-13T01:13:35;0.03;69.81
65396;HTU21D;52004;45.136;39.010;2023-02-13T01:16:01;0.01;69.78
65396;HTU21D;52004;45.136;39.010;2023-02-13T01:18:26;0.02;69.81
65396;HTU21D;52004;45.136;39.010;2023-02-13T01:21:03;-0.01;69.82
65396;HTU21D;52004;45.136;39.010;2023-02-13T01:23:30;-0.06;69.85
65396;HTU21D;52004;45.136;39.010;2023-02-13T01:25:57;-0.05;69.89
65396;HTU21D;52004;45.136;39.010;2023-02-13T01:28:23;-0.06;69.87
65396;HTU21D;52004;45.136;39.010;2023-02-13T01:30:53;-0.06;69.88
65396;HTU21D;52004;45.136;39.010;2023-02-13T01:33:24;-0.09;69.89
65396;HTU21D;52004;45.136;39.010;2023-02-13T01:36:15;-0.09;69.88
65396;HTU21D;52004;45.136;39.010;2023-02-13T01:38:41;-0.09;69.87
65396;HTU21D;52004;45.136;39.010;2023-02-13T01:41:07;-0.08;69.85
65396;HTU21D;52004;45.136;39.010;2023-02-13T01:46:12;-0.07;69.87
65396;HTU21D;52004;45.136;39.010;2023-02-13T01:48:39;-0.08;69.83
65396;HTU21D;52004;45.136;39.010;2023-02-13T01:51:07;-0.07;69.84
65396;HTU21D;52004;45.136;39.010;2023-02-13T01:53:37;-0.08;69.82
65396;HTU21D;52004;45.136;39.010;2023-02-13T01:58:52;-0.09;69.84
65396;HTU21D;52004;45.136;39.010;2023-02-13T02:01:19;-0.09;69.81
65396;HTU21D;52004;45.136;39.010;2023-02-13T02:03:52;-0.11;69.84
65396;HTU21D;52004;45.136;39.010;2023-02-13T02:06:24;-0.13;69.84
65396;HTU21D;52004;45.136;39.010;2023-02-13T02:08:51;-0.13;69.83
65396;HTU21D;52004;45.136;39.010;2023-02-13T02:11:24;-0.14;69.85
65396;HTU21D;52004;45.136;39.010;2023-02-13T02:13:51;-0.16;69.84
65396;HTU21D;52004;45.136;39.010;2023-02-13T02:16:28;-0.15;69.81
65396;HTU21D;52004;45.136;39.010;2023-02-13T02:18:54;-0.19;69.80
65396;HTU21D;52004;45.136;39.010;2023-02-13T02:23:52;-0.21;69.86
65396;HTU21D;52004;45.136;39.010;2023-02-13T02:42:27;-0.28;69.92
65396;HTU21D;52004;45.136;39.010;2023-02-13T02:45:04;-0.27;69.87
65396;HTU21D;52004;45.136;39.010;2023-02-13T02:50:49;-0.26;69.81
65396;HTU21D;52004;45.136;39.010;2023-02-13T02:55:53;-0.28;69.81
65396;HTU21D;52004;45.136;39.010;2023-02-13T02:58:30;-0.29;69.81
65396;HTU21D;52004;45.136;39.010;2023-02-13T03:01:18;-0.27;69.81
65396;HTU21D;52004;45.136;39.010;2023-02-13T03:04:05;-0.28;69.78
65396;HTU21D;52004;45.136;39.010;2023-02-13T03:06:57;-0.28;69.78
65396;HTU21D;52004;45.136;39.010;2023-02-13T03:09:26;-0.27;69.74
65396;HTU21D;52004;45.136;39.010;2023-02-13T03:12:11;-0.29;69.68
65396;HTU21D;52004;45.136;39.010;2023-02-13T03:14:57;-0.30;69.65
65396;HTU21D;52004;45.136;39.010;2023-02-13T03:17:22;-0.34;69.68
65396;HTU21D;52004;45.136;39.010;2023-02-13T03:20:11;-0.35;69.68
65396;HTU21D;52004;45.136;39.010;2023-02-13T03:25:46;-0.41;69.69
65396;HTU21D;52004;45.136;39.010;2023-02-13T03:28:11;-0.44;69.71
65396;HTU21D;52004;45.136;39.010;2023-02-13T03:33:57;-0.46;69.80
65396;HTU21D;52004;45.136;39.010;2023-02-13T03:36:31;-0.44;69.79
65396;HTU21D;52004;45.136;39.010;2023-02-13T03:39:21;-0.44;69.78
65396;HTU21D;52004;45.136;39.010;2023-02-13T03:42:03;-0.44;69.81
65396;HTU21D;52004;45.136;39.010;2023-02-13T03:46:58;-0.44;69.84
65396;HTU21D;52004;45.136;39.010;2023-02-13T03:52:29;-0.43;69.81
65396;HTU21D;52004;45.136;39.010;2023-02-13T03:55:00;-0.44;69.84
65396;HTU21D;52004;45.136;39.010;2023-02-13T03:57:48;-0.44;69.84
65396;HTU21D;52004;45.136;39.010;2023-02-13T04:00:37;-0.45;69.81
65396;HTU21D;52004;45.136;39.010;2023-02-13T04:05:38;-0.45;69.82
65396;HTU21D;52004;45.136;39.010;2023-02-13T04:08:06;-0.46;69.85
65396;HTU21D;52004;45.136;39.010;2023-02-13T04:10:33;-0.45;69.83
65396;HTU21D;52004;45.136;39.010;2023-02-13T04:13:09;-0.44;69.80
65396;HTU21D;52004;45.136;39.010;2023-02-13T04:15:50;-0.44;69.80
65396;HTU21D;52004;45.136;39.010;2023-02-13T04:18:20;-0.47;69.81
65396;HTU21D;52004;45.136;39.010;2023-02-13T04:20:46;-0.50;69.87
65396;HTU21D;52004;45.136;39.010;2023-02-13T04:23:13;-0.53;69.87
65396;HTU21D;52004;45.136;39.010;2023-02-13T04:25:40;-0.54;69.95
65396;HTU21D;52004;45.136;39.010;2023-02-13T04:28:07;-0.52;69.95
65396;HTU21D;52004;45.136;39.010;2023-02-13T04:30:33;-0.52;69.96
65396;HTU21D;52004;45.136;39.010;2023-02-13T04:32:59;-0.50;69.93
65396;HTU21D;52004;45.136;39.010;2023-02-13T04:35:25;-0.50;69.90
65396;HTU21D;52004;45.136;39.010;2023-02-13T04:37:50;-0.49;69.90
65396;HTU21D;52004;45.136;39.010;2023-02-13T04:40:16;-0.49;69.88
65396;HTU21D;52004;45.136;39.010;2023-02-13T04:42:43;-0.50;69.84
65396;HTU21D;52004;45.136;39.010;2023-02-13T04:45:09;-0.51;69.89
65396;HTU21D;52004;45.136;39.010;2023-02-13T04:47:34;-0.49;69.95
65396;HTU21D;52004;45.136;39.010;2023-02-13T04:50:00;-0.49;69.92
65396;HTU21D;52004;45.136;39.010;2023-02-13T04:52:26;-0.47;69.93
65396;HTU21D;52004;45.136;39.010;2023-02-13T04:54:52;-0.47;69.96
65396;HTU21D;52004;45.136;39.010;2023-02-13T04:57:18;-0.43;69.95
65396;HTU21D;52004;45.136;39.010;2023-02-13T04:59:44;-0.40;69.94
65396;HTU21D;52004;45.136;39.010;2023-02-13T05:02:10;-0.37;69.91
65396;HTU21D;52004;45.136;39.010;2023-02-13T05:04:36;-0.38;69.86
65396;HTU21D;52004;45.136;39.010;2023-02-13T05:07:02;-0.37;69.90
65396;HTU21D;52004;45.136;39.010;2023-02-13T05:09:28;-0.36;69.96
65396;HTU21D;52004;45.136;39.010;2023-02-13T05:11:54;-0.34;69.96
65396;HTU21D;52004;45.136;39.010;2023-02-13T05:14:20;-0.32;69.91
65396;HTU21D;52004;45.136;39.010;2023-02-13T05:16:46;-0.31;69.94
65396;HTU21D;52004;45.136;39.010;2023-02-13T05:19:12;-0.30;69.97
65396;HTU21D;52004;45.136;39.010;2023-02-13T05:21:38;-0.26;69.99
65396;HTU21D;52004;45.136;39.010;2023-02-13T05:24:22;-0.24;69.96
65396;HTU21D;52004;45.136;39.010;2023-02-13T05:26:48;-0.23;69.96
65396;HTU21D;52004;45.136;39.010;2023-02-13T05:29:14;-0.23;69.95
65396;HTU21D;52004;45.136;39.010;2023-02-13T05:31:47;-0.22;70.03
65396;HTU21D;52004;45.136;39.010;2023-02-13T05:34:14;-0.21;69.97
65396;HTU21D;52004;45.136;39.010;2023-02-13T05:36:39;-0.19;70.03
65396;HTU21D;52004;45.136;39.010;2023-02-13T05:39:06;-0.17;70.02
65396;HTU21D;52004;45.136;39.010;2023-02-13T05:41:31;-0.13;70.04
65396;HTU21D;52004;45.136;39.010;2023-02-13T05:43:57;-0.11;70.03
65396;HTU21D;52004;45.136;39.010;2023-02-13T05:46:23;-0.08;70.04
65396;HTU21D;52004;45.136;39.010;2023-02-13T05:48:50;-0.02;70.08
65396;HTU21D;52004;45.136;39.010;2023-02-13T05:51:16;0.02;70.07
65396;HTU21D;52004;45.136;39.010;2023-02-13T05:53:42;0.05;70.00
65396;HTU21D;52004;45.136;39.010;2023-02-13T05:56:07;0.10;70.03
65396;HTU21D;52004;45.136;39.010;2023-02-13T05:58:34;0.15;70.01
65396;HTU21D;52004;45.136;39.010;2023-02-13T06:00:59;0.19;69.92
65396;HTU21D;52004;45.136;39.010;2023-02-13T06:03:26;0.22;70.00
65396;HTU21D;52004;45.136;39.010;2023-02-13T06:05:52;0.29;69.97
65396;HTU21D;52004;45.136;39.010;2023-02-13T06:08:19;0.33;69.94
65396;HTU21D;52004;45.136;39.010;2023-02-13T06:10:45;0.36;69.84
65396;HTU21D;52004;45.136;39.010;2023-02-13T06:13:11;0.37;69.83
65396;HTU21D;52004;45.136;39.010;2023-02-13T06:15:37;0.37;69.76
65396;HTU21D;52004;45.136;39.010;2023-02-13T06:18:03;0.36;69.76
65396;HTU21D;52004;45.136;39.010;2023-02-13T06:20:29;0.38;69.84
65396;HTU21D;52004;45.136;39.010;2023-02-13T06:22:55;0.48;70.34
65396;HTU21D;52004;45.136;39.010;2023-02-13T06:25:21;0.00;70.25
65396;HTU21D;52004;45.136;39.010;2023-02-13T06:27:47;0.71;70.17
65396;HTU21D;52004;45.136;39.010;2023-02-13T06:30:13;0.75;69.96
65396;HTU21D;52004;45.136;39.010;2023-02-13T06:32:40;0.95;70.17
65396;HTU21D;52004;45.136;39.010;2023-02-13T06:35:06;1.41;71.55
65396;HTU21D;52004;45.136;39.010;2023-02-13T06:37:32;1.94;72.45
65396;HTU21D;52004;45.136;39.010;2023-02-13T06:39:58;2.60;73.39
65396;HTU21D;52004;45.136;39.010;2023-02-13T06:42:25;3.32;74.06
65396;HTU21D;52004;45.136;39.010;2023-02-13T06:44:51;3.99;74.12
65396;HTU21D;52004;45.136;39.010;2023-02-13T06:47:16;4.60;74.15
65396;HTU21D;52004;45.136;39.010;2023-02-13T06:49:42;5.13;74.24
65396;HTU21D;52004;45.136;39.010;2023-02-13T06:52:08;5.64;74.08
65396;HTU21D;52004;45.136;39.010;2023-02-13T06:54:34;6.08;73.77
65396;HTU21D;52004;45.136;39.010;2023-02-13T06:57:00;6.46;73.32
65396;HTU21D;52004;45.136;39.010;2023-02-13T06:59:26;6.75;73.01
65396;HTU21D;52004;45.136;39.010;2023-02-13T07:01:53;7.04;73.03
65396;HTU21D;52004;45.136;39.010;2023-02-13T07:04:19;7.34;73.24
65396;HTU21D;52004;45.136;39.010;2023-02-13T07:06:44;7.69;73.57
65396;HTU21D;52004;45.136;39.010;2023-02-13T07:09:10;8.05;73.71
65396;HTU21D;52004;45.136;39.010;2023-02-13T07:11:38;8.44;73.59
65396;HTU21D;52004;45.136;39.010;2023-02-13T07:14:06;8.77;73.76
65396;HTU21D;52004;45.136;39.010;2023-02-13T07:16:32;9.05;73.50
65396;HTU21D;52004;45.136;39.010;2023-02-13T07:18:58;9.10;72.54
65396;HTU21D;52004;45.136;39.010;2023-02-13T07:21:24;9.26;72.86
65396;HTU21D;52004;45.136;39.010;2023-02-13T07:23:50;9.22;71.73
65396;HTU21D;52004;45.136;39.010;2023-02-13T07:26:16;8.96;70.53
65396;HTU21D;52004;45.136;39.010;2023-02-13T07:28:42;8.90;71.32
65396;HTU21D;52004;45.136;39.010;2023-02-13T07:31:08;8.98;71.69
65396;HTU21D;52004;45.136;39.010;2023-02-13T07:33:34;9.05;71.74
65396;HTU21D;52004;45.136;39.010;2023-02-13T07:36:01;9.18;72.01
65396;HTU21D;52004;45.136;39.010;2023-02-13T07:38:30;9.33;71.98
65396;HTU21D;52004;45.136;39.010;2023-02-13T07:40:57;9.51;71.99
65396;HTU21D;52004;45.136;39.010;2023-02-13T07:43:23;9.60;71.50
65396;HTU21D;52004;45.136;39.010;2023-02-13T07:45:49;9.71;71.56
65396;HTU21D;52004;45.136;39.010;2023-02-13T07:48:23;9.82;71.16
65396;HTU21D;52004;45.136;39.010;2023-02-13T07:50:49;9.85;70.77
65396;HTU21D;52004;45.136;39.010;2023-02-13T07:53:15;9.86;70.98
65396;HTU21D;52004;45.136;39.010;2023-02-13T07:55:41;9.94;71.32
65396;HTU21D;52004;45.136;39.010;2023-02-13T07:58:07;10.05;71.83
65396;HTU21D;52004;45.136;39.010;2023-02-13T08:00:32;10.04;71.58
65396;HTU21D;52004;45.136;39.010;2023-02-13T08:02:59;10.01;72.08
65396;HTU21D;52004;45.136;39.010;2023-02-13T08:05:25;10.24;72.32
65396;HTU21D;52004;45.136;39.010;2023-02-13T08:07:51;10.43;71.86
65396;HTU21D;52004;45.136;39.010;2023-02-13T08:10:18;10.58;71.55
65396;HTU21D;52004;45.136;39.010;2023-02-13T08:13:03;10.60;71.46
65396;HTU21D;52004;45.136;39.010;2023-02-13T08:15:29;10.63;71.07
65396;HTU21D;52004;45.136;39.010;2023-02-13T08:17:55;10.64;70.58
65396;HTU21D;52004;45.136;39.010;2023-02-13T08:20:20;10.72;71.19
65396;HTU21D;52004;45.136;39.010;2023-02-13T08:22:46;10.83;70.84
65396;HTU21D;52004;45.136;39.010;2023-02-13T08:25:12;10.85;70.80
65396;HTU21D;52004;45.136;39.010;2023-02-13T08:27:38;10.97;71.06
65396;HTU21D;52004;45.136;39.010;2023-02-13T08:30:04;11.10;71.00
65396;HTU21D;52004;45.136;39.010;2023-02-13T08:32:31;11.11;70.37
65396;HTU21D;52004;45.136;39.010;2023-02-13T08:34:56;10.87;69.52
65396;HTU21D;52004;45.136;39.010;2023-02-13T08:37:22;10.75;69.26
65396;HTU21D;52004;45.136;39.010;2023-02-13T08:39:49;10.51;68.30
65396;HTU21D;52004;45.136;39.010;2023-02-13T08:42:15;10.38;68.54
65396;HTU21D;52004;45.136;39.010;2023-02-13T08:44:40;10.22;67.96
65396;HTU21D;52004;45.136;39.010;2023-02-13T08:47:07;10.27;68.89
65396;HTU21D;52004;45.136;39.010;2023-02-13T08:49:33;9.99;67.42
65396;HTU21D;52004;45.136;39.010;2023-02-13T08:51:59;9.47;65.94
65396;HTU21D;52004;45.136;39.010;2023-02-13T08:54:25;9.22;67.78
65396;HTU21D;52004;45.136;39.010;2023-02-13T08:56:52;9.26;69.37
65396;HTU21D;52004;45.136;39.010;2023-02-13T08:59:18;9.50;69.94
65396;HTU21D;52004;45.136;39.010;2023-02-13T09:01:45;9.59;68.44
65396;HTU21D;52004;45.136;39.010;2023-02-13T09:04:11;9.22;66.09
65396;HTU21D;52004;45.136;39.010;2023-02-13T09:06:36;8.64;65.54
65396;HTU21D;52004;45.136;39.010;2023-02-13T09:09:05;8.49;67.65
65396;HTU21D;52004;45.136;39.010;2023-02-13T09:11:31;8.78;69.74
65396;HTU21D;52004;45.136;39.010;2023-02-13T09:13:57;9.17;69.91
65396;HTU21D;52004;45.136;39.010;2023-02-13T09:16:23;9.53;70.03
65396;HTU21D;52004;45.136;39.010;2023-02-13T09:18:49;9.64;68.29
65396;HTU21D;52004;45.136;39.010;2023-02-13T09:21:16;9.79;68.78
65396;HTU21D;52004;45.136;39.010;2023-02-13T09:23:42;9.75;67.31
65396;HTU21D;52004;45.136;39.010;2023-02-13T09:26:09;9.78;68.40
65396;HTU21D;52004;45.136;39.010;2023-02-13T09:28:36;9.99;69.40
65396;HTU21D;52004;45.136;39.010;2023-02-13T09:31:09;10.25;69.01
65396;HTU21D;52004;45.136;39.010;2023-02-13T09:33:35;9.96;67.00
65396;HTU21D;52004;45.136;39.010;2023-02-13T09:36:08;9.64;66.66
65396;HTU21D;52004;45.136;39.010;2023-02-13T09:38:34;9.57;66.55
65396;HTU21D;52004;45.136;39.010;2023-02-13T09:41:07;9.75;68.16
65396;HTU21D;52004;45.136;39.010;2023-02-13T09:43:35;9.89;67.28
65396;HTU21D;52004;45.136;39.010;2023-02-13T09:46:10;9.62;66.30
65396;HTU21D;52004;45.136;39.010;2023-02-13T09:48:38;9.51;67.23
65396;HTU21D;52004;45.136;39.010;2023-02-13T09:51:05;9.77;68.69
65396;HTU21D;52004;45.136;39.010;2023-02-13T09:53:31;9.82;66.97
65396;HTU21D;52004;45.136;39.010;2023-02-13T09:56:15;9.61;66.10
65396;HTU21D;52004;45.136;39.010;2023-02-13T09:58:48;9.41;65.73
65396;HTU21D;52004;45.136;39.010;2023-02-13T10:01:16;9.31;66.39
65396;HTU21D;52004;45.136;39.010;2023-02-13T10:03:44;9.04;65.57
65396;HTU21D;52004;45.136;39.010;2023-02-13T10:06:31;9.06;67.41
65396;HTU21D;52004;45.136;39.010;2023-02-13T10:09:08;9.29;68.77
65396;HTU21D;52004;45.136;39.010;2023-02-13T10:11:44;9.70;69.34
65396;HTU21D;52004;45.136;39.010;2023-02-13T10:14:18;9.98;69.53
65396;HTU21D;52004;45.136;39.010;2023-02-13T10:21:59;9.60;65.37
65396;HTU21D;52004;45.136;39.010;2023-02-13T10:26:58;8.89;67.30
65396;HTU21D;52004;45.136;39.010;2023-02-13T10:29:36;9.22;68.94
65396;HTU21D;52004;45.136;39.010;2023-02-13T10:32:23;9.80;69.51
65396;HTU21D;52004;45.136;39.010;2023-02-13T10:34:51;9.86;66.88
65396;HTU21D;52004;45.136;39.010;2023-02-13T10:37:19;9.95;67.27
65396;HTU21D;52004;45.136;39.010;2023-02-13T10:39:47;9.98;66.42
65396;HTU21D;52004;45.136;39.010;2023-02-13T10:42:20;9.80;65.68
65396;HTU21D;52004;45.136;39.010;2023-02-13T11:00:39;7.90;64.06
65396;HTU21D;52004;45.136;39.010;2023-02-13T11:03:12;7.94;66.34
65396;HTU21D;52004;45.136;39.010;2023-02-13T11:05:40;8.53;68.19
65396;HTU21D;52004;45.136;39.010;2023-02-13T11:08:25;8.88;66.70
65396;HTU21D;52004;45.136;39.010;2023-02-13T11:10:53;9.04;66.89
65396;HTU21D;52004;45.136;39.010;2023-02-13T11:13:20;9.41;67.53
65396;HTU21D;52004;45.136;39.010;2023-02-13T11:15:56;9.77;66.78
65396;HTU21D;52004;45.136;39.010;2023-02-13T11:18:22;9.93;66.28
65396;HTU21D;52004;45.136;39.010;2023-02-13T11:20:57;10.03;65.35
65396;HTU21D;52004;45.136;39.010;2023-02-13T11:25:59;10.33;65.11
65396;HTU21D;52004;45.136;39.010;2023-02-13T11:28:54;10.50;64.45
65396;HTU21D;52004;45.136;39.010;2023-02-13T11:31:22;10.46;63.49
65396;HTU21D;52004;45.136;39.010;2023-02-13T11:33:49;10.29;62.50
65396;HTU21D;52004;45.136;39.010;2023-02-13T11:36:21;9.76;60.99
65396;HTU21D;52004;45.136;39.010;2023-02-13T11:38:55;9.38;61.67
65396;HTU21D;52004;45.136;39.010;2023-02-13T11:41:21;9.33;62.47
65396;HTU21D;52004;45.136;39.010;2023-02-13T11:43:49;9.32;61.63
65396;HTU21D;52004;45.136;39.010;2023-02-13T11:46:19;9.05;60.74
65396;HTU21D;52004;45.136;39.010;2023-02-13T11:49:27;8.53;60.34
65396;HTU21D;52004;45.136;39.010;2023-02-13T11:51:38;8.22;61.19
65396;HTU21D;52004;45.136;39.010;2023-02-13T11:54:05;7.98;60.93
65396;HTU21D;52004;45.136;39.010;2023-02-13T11:56:45;7.83;60.68
65396;HTU21D;52004;45.136;39.010;2023-02-13T11:59:12;7.45;60.93
65396;HTU21D;52004;45.136;39.010;2023-02-13T12:01:38;7.27;61.05
65396;HTU21D;52004;45.136;39.010;2023-02-13T12:04:21;7.10;61.24
65396;HTU21D;52004;45.136;39.010;2023-02-13T12:07:02;6.95;61.38
65396;HTU21D;52004;45.136;39.010;2023-02-13T12:09:29;6.94;61.73
65396;HTU21D;52004;45.136;39.010;2023-02-13T12:11:56;6.95;61.70
65396;HTU21D;52004;45.136;39.010;2023-02-13T12:14:35;7.00;61.79
65396;HTU21D;52004;45.136;39.010;2023-02-13T12:17:03;7.25;62.01
65396;HTU21D;52004;45.136;39.010;2023-02-13T12:19:35;7.38;61.20
65396;HTU21D;52004;45.136;39.010;2023-02-13T12:32:58;5.68;62.57
65396;HTU21D;52004;45.136;39.010;2023-02-13T12:43:19;5.84;62.05
65396;HTU21D;52004;45.136;39.010;2023-02-13T12:48:26;6.31;63.08
65396;HTU21D;52004;45.136;39.010;2023-02-13T12:51:02;6.73;62.96
65396;HTU21D;52004;45.136;39.010;2023-02-13T13:04:11;7.09;61.07
65396;HTU21D;52004;45.136;39.010;2023-02-13T13:09:18;6.84;62.05
65396;HTU21D;52004;45.136;39.010;2023-02-13T13:12:07;6.90;61.92
65396;HTU21D;52004;45.136;39.010;2023-02-13T13:19:54;6.25;60.97
65396;HTU21D;52004;45.136;39.010;2023-02-13T13:27:21;5.32;62.21
65396;HTU21D;52004;45.136;39.010;2023-02-13T13:29:53;5.38;62.79
65396;HTU21D;52004;45.136;39.010;2023-02-13T13:32:20;5.52;62.60
65396;HTU21D;52004;45.136;39.010;2023-02-13T13:34:46;5.71;62.60
65396;HTU21D;52004;45.136;39.010;2023-02-13T13:39:53;5.79;61.70
65396;HTU21D;52004;45.136;39.010;2023-02-13T13:42:37;5.68;61.95
65396;HTU21D;52004;45.136;39.010;2023-02-13T13:50:25;5.42;62.24
65396;HTU21D;52004;45.136;39.010;2023-02-13T13:58:30;5.01;61.86
65396;HTU21D;52004;45.136;39.010;2023-02-13T14:03:41;4.83;62.18
65396;HTU21D;52004;45.136;39.010;2023-02-13T14:06:09;4.76;62.11
65396;HTU21D;52004;45.136;39.010;2023-02-13T14:11:06;4.61;62.04
65396;HTU21D;52004;45.136;39.010;2023-02-13T14:13:49;4.44;61.83
65396;HTU21D;52004;45.136;39.010;2023-02-13T14:16:35;4.26;61.92
65396;HTU21D;52004;45.136;39.010;2023-02-13T14:19:01;4.08;61.88
65396;HTU21D;52004;45.136;39.010;2023-02-13T14:21:27;3.84;61.98
65396;HTU21D;52004;45.136;39.010;2023-02-13T14:23:53;3.70;62.18
65396;HTU21D;52004;45.136;39.010;2023-02-13T14:26:29;3.57;62.19
65396;HTU21D;52004;45.136;39.010;2023-02-13T14:28:57;3.47;62.24
65396;HTU21D;52004;45.136;39.010;2023-02-13T14:31:25;3.34;62.21
65396;HTU21D;52004;45.136;39.010;2023-02-13T14:33:59;3.24;62.18
65396;HTU21D;52004;45.136;39.010;2023-02-13T14:36:27;3.09;62.30
65396;HTU21D;52004;45.136;39.010;2023-02-13T14:39:05;2.98;62.37
65396;HTU21D;52004;45.136;39.010;2023-02-13T14:44:18;2.83;62.48
65396;HTU21D;52004;45.136;39.010;2023-02-13T14:46:44;2.75;62.50
65396;HTU21D;52004;45.136;39.010;2023-02-13T14:49:16;2.65;62.53
65396;HTU21D;52004;45.136;39.010;2023-02-13T14:51:52;2.57;62.53
65396;HTU21D;52004;45.136;39.010;2023-02-13T14:56:51;2.40;62.59
65396;HTU21D;52004;45.136;39.010;2023-02-13T14:59:21;2.35;62.66
65396;HTU21D;52004;45.136;39.010;2023-02-13T15:01:50;2.31;62.60
65396;HTU21D;52004;45.136;39.010;2023-02-13T15:07:22;2.10;62.66
65396;HTU21D;52004;45.136;39.010;2023-02-13T15:09:53;2.03;62.74
65396;HTU21D;52004;45.136;39.010;2023-02-13T15:12:23;1.98;62.82
65396;HTU21D;52004;45.136;39.010;2023-02-13T15:14:49;1.90;62.88
65396;HTU21D;52004;45.136;39.010;2023-02-13T15:17:17;1.88;62.89
65396;HTU21D;52004;45.136;39.010;2023-02-13T15:19:53;1.83;62.86
65396;HTU21D;52004;45.136;39.010;2023-02-13T15:24:46;1.71;62.95
65396;HTU21D;52004;45.136;39.010;2023-02-13T15:27:31;1.68;62.95
65396;HTU21D;52004;45.136;39.010;2023-02-13T15:32:25;1.55;63.04
65396;HTU21D;52004;45.136;39.010;2023-02-13T15:34:51;1.51;63.07
65396;HTU21D;52004;45.136;39.010;2023-02-13T15:37:21;1.46;63.02
65396;HTU21D;52004;45.136;39.010;2023-02-13T15:39:48;1.42;63.15
65396;HTU21D;52004;45.136;39.010;2023-02-13T15:42:14;1.40;63.18
65396;HTU21D;52004;45.136;39.010;2023-02-13T15:44:40;1.42;63.08
65396;HTU21D;52004;45.136;39.010;2023-02-13T15:47:16;1.40;63.04
65396;HTU21D;52004;45.136;39.010;2023-02-13T15:49:43;0.00;63.08
65396;HTU21D;52004;45.136;39.010;2023-02-13T15:52:15;1.34;63.10
65396;HTU21D;52004;45.136;39.010;2023-02-13T15:54:49;1.29;63.02
65396;HTU21D;52004;45.136;39.010;2023-02-13T15:57:15;1.21;63.03
65396;HTU21D;52004;45.136;39.010;2023-02-13T15:59:42;1.16;63.12
65396;HTU21D;52004;45.136;39.010;2023-02-13T16:02:12;1.13;63.20
65396;HTU21D;52004;45.136;39.010;2023-02-13T16:04:39;1.11;63.18
65396;HTU21D;52004;45.136;39.010;2023-02-13T16:07:08;1.08;63.19
65396;HTU21D;52004;45.136;39.010;2023-02-13T16:09:35;1.07;63.19
65396;HTU21D;52004;45.136;39.010;2023-02-13T16:12:02;1.04;63.21
65396;HTU21D;52004;45.136;39.010;2023-02-13T16:14:29;1.03;63.23
65396;HTU21D;52004;45.136;39.010;2023-02-13T16:17:00;1.01;63.21
65396;HTU21D;52004;45.136;39.010;2023-02-13T16:19:34;0.96;63.24
65396;HTU21D;52004;45.136;39.010;2023-02-13T16:22:02;0.95;63.27
65396;HTU21D;52004;45.136;39.010;2023-02-13T16:24:29;0.92;63.27
65396;HTU21D;52004;45.136;39.010;2023-02-13T16:26:55;0.86;63.28
65396;HTU21D;52004;45.136;39.010;2023-02-13T16:29:22;0.84;63.34
65396;HTU21D;52004;45.136;39.010;2023-02-13T16:31:49;0.80;63.34
65396;HTU21D;52004;45.136;39.010;2023-02-13T16:34:25;0.76;63.35
65396;HTU21D;52004;45.136;39.010;2023-02-13T16:36:51;0.74;63.45
65396;HTU21D;52004;45.136;39.010;2023-02-13T16:39:18;0.72;63.49
65396;HTU21D;52004;45.136;39.010;2023-02-13T16:41:45;0.00;63.50
65396;HTU21D;52004;45.136;39.010;2023-02-13T16:47:11;0.67;63.62
65396;HTU21D;52004;45.136;39.010;2023-02-13T16:49:41;0.64;63.62
65396;HTU21D;52004;45.136;39.010;2023-02-13T16:54:38;0.55;63.74
65396;HTU21D;52004;45.136;39.010;2023-02-13T16:59:41;0.58;63.78
65396;HTU21D;52004;45.136;39.010;2023-02-13T17:02:14;0.55;63.79
65396;HTU21D;52004;45.136;39.010;2023-02-13T17:04:41;0.57;63.84
65396;HTU21D;52004;45.136;39.010;2023-02-13T17:07:11;0.55;63.83
65396;HTU21D;52004;45.136;39.010;2023-02-13T17:09:37;0.55;63.87
65396;HTU21D;52004;45.136;39.010;2023-02-13T17:12:03;0.53;63.85
65396;HTU21D;52004;45.136;39.010;2023-02-13T17:14:29;0.51;63.87
65396;HTU21D;52004;45.136;39.010;2023-02-13T17:16:55;0.48;63.89
65396;HTU21D;52004;45.136;39.010;2023-02-13T17:19:21;0.45;64.00
65396;HTU21D;52004;45.136;39.010;2023-02-13T17:21:47;0.42;64.03
65396;HTU21D;52004;45.136;39.010;2023-02-13T17:24:15;0.42;64.06
65396;HTU21D;52004;45.136;39.010;2023-02-13T17:26:42;0.38;64.12
65396;HTU21D;52004;45.136;39.010;2023-02-13T17:29:08;0.34;64.17
65396;HTU21D;52004;45.136;39.010;2023-02-13T17:31:35;0.31;64.18
65396;HTU21D;52004;45.136;39.010;2023-02-13T17:34:01;0.30;64.30
65396;HTU21D;52004;45.136;39.010;2023-02-13T17:36:26;0.28;64.34
65396;HTU21D;52004;45.136;39.010;2023-02-13T17:38:52;0.29;64.37
65396;HTU21D;52004;45.136;39.010;2023-02-13T17:41:18;0.25;64.40
65396;HTU21D;52004;45.136;39.010;2023-02-13T17:43:45;0.23;64.53
65396;HTU21D;52004;45.136;39.010;2023-02-13T17:46:11;0.22;64.53
65396;HTU21D;52004;45.136;39.010;2023-02-13T17:48:37;0.22;64.56
65396;HTU21D;52004;45.136;39.010;2023-02-13T17:51:03;0.19;64.62
65396;HTU21D;52004;45.136;39.010;2023-02-13T17:53:31;0.17;64.69
65396;HTU21D;52004;45.136;39.010;2023-02-13T17:56:09;0.14;64.76
65396;HTU21D;52004;45.136;39.010;2023-02-13T17:58:35;0.13;64.82